createdAt,value
2019-01-17T00:02:57.927Z,96671.00
2019-01-17T00:07:18.703Z,96659.00
2019-01-17T00:11:41.350Z,96664.00
2019-01-17T00:16:22.152Z,96655.00
2019-01-17T00:21:02.786Z,96666.00
2019-01-17T00:30:11.849Z,96643.00
2019-01-17T00:34:52.471Z,96655.00
2019-01-17T00:39:33.072Z,96668.00
2019-01-17T00:44:13.875Z,96666.00
2019-01-17T00:48:36.481Z,96665.00
2019-01-17T00:53:11.026Z,96665.00
2019-01-17T00:57:46.777Z,96663.00
2019-01-17T01:02:04.020Z,96665.00
2019-01-17T01:06:23.081Z,96656.00
2019-01-17T01:10:44.530Z,96657.00
2019-01-17T01:15:27.071Z,96667.00
2019-01-17T01:20:07.780Z,96668.00
2019-01-17T01:29:32.635Z,96670.00
2019-01-17T01:34:13.255Z,96655.00
2019-01-17T01:38:53.885Z,96653.00
2019-01-17T01:43:34.622Z,96649.00
2019-01-17T01:52:19.813Z,96630.00
2019-01-17T01:56:33.764Z,96645.00
2019-01-17T02:00:34.838Z,96633.00
2019-01-17T02:04:55.660Z,96647.00
2019-01-17T02:09:16.514Z,96637.00
2019-01-17T02:13:37.515Z,96624.00
2019-01-17T02:17:58.268Z,96617.00
2019-01-17T02:22:19.024Z,96620.00
2019-01-17T02:26:39.879Z,96617.00
2019-01-17T02:31:00.720Z,96618.00
2019-01-17T02:35:21.628Z,96616.00
2019-01-17T02:39:43.349Z,96607.00
2019-01-17T02:44:04.608Z,96605.00
2019-01-17T02:48:25.439Z,96597.00
2019-01-17T02:52:41.710Z,96603.00
2019-01-17T02:56:55.733Z,96599.00
2019-01-17T03:01:10.144Z,96595.00
2019-01-17T03:05:24.548Z,96592.00
2019-01-17T03:09:39.009Z,96605.00
2019-01-17T03:13:53.613Z,96605.00
2019-01-17T03:18:07.585Z,96594.00
2019-01-17T03:22:22.193Z,96596.00
2019-01-17T03:26:36.682Z,96593.00
2019-01-17T03:30:51.090Z,96596.00
2019-01-17T03:35:05.529Z,96586.00
2019-01-17T03:39:20.288Z,96582.00
2019-01-17T03:43:34.906Z,96584.00
2019-01-17T03:47:49.270Z,96582.00
2019-01-17T03:52:03.659Z,96579.00
2019-01-17T03:56:21.833Z,96590.00
2019-01-17T04:04:52.995Z,96584.00
2019-01-17T04:09:07.388Z,96598.00
2019-01-17T04:13:22.124Z,96590.00
2019-01-17T04:17:36.577Z,96582.00
2019-01-17T04:21:51.289Z,96578.00
2019-01-17T04:26:05.808Z,96567.00
2019-01-17T04:30:20.594Z,96571.00
2019-01-17T04:34:35.259Z,96581.00
2019-01-17T04:38:49.809Z,96570.00
2019-01-17T04:43:04.532Z,96573.00
2019-01-17T04:47:19.244Z,96576.00
2019-01-17T04:51:33.787Z,96571.00
2019-01-17T04:55:48.472Z,96572.00
2019-01-17T04:59:49.375Z,96571.00
2019-01-17T05:04:10.106Z,96577.00
2019-01-17T05:08:30.816Z,96579.00
2019-01-17T05:12:51.551Z,96567.00
2019-01-17T05:16:52.417Z,96565.00
2019-01-17T05:21:13.153Z,96566.00
2019-01-17T05:25:33.933Z,96577.00
2019-01-17T05:29:54.776Z,96561.00
2019-01-17T05:34:15.618Z,96555.00
2019-01-17T05:38:36.469Z,96561.00
2019-01-17T05:42:57.294Z,96555.00
2019-01-17T05:46:58.177Z,96559.00
2019-01-17T05:51:18.929Z,96555.00
2019-01-17T05:55:39.653Z,96561.00
2019-01-17T05:59:40.607Z,96570.00
2019-01-17T06:04:01.352Z,96565.00
2019-01-17T06:08:22.112Z,96565.00
2019-01-17T06:12:42.942Z,96562.00
2019-01-17T06:17:03.687Z,96571.00
2019-01-17T06:21:24.549Z,96571.00
2019-01-17T06:25:45.503Z,96575.00
2019-01-17T06:30:08.108Z,96560.00
2019-01-17T06:34:28.842Z,96566.00
2019-01-17T06:38:49.598Z,96569.00
2019-01-17T06:42:50.568Z,96569.00
2019-01-17T06:47:11.416Z,96571.00
2019-01-17T06:51:26.112Z,96571.00
2019-01-17T06:55:40.842Z,96567.00
2019-01-17T06:59:55.304Z,96585.00
2019-01-17T07:04:09.787Z,96590.00
2019-01-17T07:08:24.380Z,96592.00
2019-01-17T07:12:38.835Z,96587.00
2019-01-17T07:16:53.621Z,96574.00
2019-01-17T07:21:08.341Z,96570.00
2019-01-17T07:25:23.085Z,96576.00
2019-01-17T07:29:37.786Z,96576.00
2019-01-17T07:33:52.297Z,96576.00
2019-01-17T07:38:06.649Z,96572.00
2019-01-17T07:42:21.242Z,96571.00
2019-01-17T07:46:36.573Z,96549.00
2019-01-17T07:50:51.347Z,96535.00
2019-01-17T07:55:06.087Z,96560.00
2019-01-17T07:59:20.635Z,96567.00
2019-01-17T08:03:34.517Z,96590.00
2019-01-17T08:07:48.379Z,96589.00
2019-01-17T08:12:05.148Z,96582.00
2019-01-17T08:16:19.417Z,96551.00
2019-01-17T08:20:34.180Z,96571.00
2019-01-17T08:24:48.730Z,96572.00
2019-01-17T08:29:03.202Z,96587.00
2019-01-17T08:33:17.780Z,96582.00
2019-01-17T08:37:32.243Z,96589.00
2019-01-17T08:41:46.766Z,96585.00
2019-01-17T08:46:00.687Z,96589.00
2019-01-17T08:50:15.360Z,96594.00
2019-01-17T08:54:29.216Z,96605.00
2019-01-17T08:58:43.676Z,96598.00
2019-01-17T09:02:58.257Z,96604.00
2019-01-17T09:07:12.765Z,96589.00
2019-01-17T09:11:27.082Z,96593.00
2019-01-17T09:15:41.665Z,96596.00
2019-01-17T09:19:56.241Z,96594.00
2019-01-17T09:24:10.849Z,96601.00
2019-01-17T09:28:25.474Z,96593.00
2019-01-17T09:32:39.979Z,96597.00
2019-01-17T09:36:54.425Z,96605.00
2019-01-17T09:41:09.030Z,96599.00
2019-01-17T09:45:22.899Z,96604.00
2019-01-17T09:49:36.725Z,96603.00
2019-01-17T09:53:50.687Z,96607.00
2019-01-17T09:57:51.690Z,96599.00
2019-01-17T10:02:12.432Z,96620.00
2019-01-17T10:06:33.180Z,96612.00
2019-01-17T10:10:54.050Z,96610.00
2019-01-17T10:15:36.542Z,96614.00
2019-01-17T10:20:17.241Z,96598.00
2019-01-17T10:24:57.851Z,96594.00
2019-01-17T10:29:38.450Z,96603.00
2019-01-17T10:34:20.986Z,96584.00
2019-01-17T10:39:01.615Z,96576.00
2019-01-17T10:43:42.215Z,96575.00
2019-01-17T10:48:23.490Z,96568.00
2019-01-17T10:52:37.464Z,96567.00
2019-01-17T10:56:52.105Z,96565.00
2019-01-17T11:01:06.032Z,96551.00
2019-01-17T11:05:28.704Z,96553.00
2019-01-17T11:10:11.216Z,96538.00
2019-01-17T11:14:51.814Z,96527.00
2019-01-17T11:19:34.434Z,96516.00
2019-01-17T11:24:16.909Z,96520.00
2019-01-17T11:28:57.535Z,96530.00
2019-01-17T11:33:38.145Z,96515.00
2019-01-17T11:38:20.695Z,96521.00
2019-01-17T11:43:01.304Z,96521.00
2019-01-17T11:47:43.801Z,96510.00
2019-01-17T11:52:24.422Z,96500.00
2019-01-17T11:57:05.049Z,96498.00
2019-01-17T12:01:46.253Z,96507.00
2019-01-17T12:06:07.038Z,96501.00
2019-01-17T12:10:27.787Z,96502.00
2019-01-17T12:14:48.650Z,96495.00
2019-01-17T12:19:09.508Z,96486.00
2019-01-17T12:23:30.504Z,96489.00
2019-01-17T12:27:51.251Z,96484.00
2019-01-17T12:32:12.320Z,96479.00
2019-01-17T12:36:33.141Z,96475.00
2019-01-17T12:40:53.949Z,96471.00
2019-01-17T12:45:14.728Z,96470.00
2019-01-17T12:49:35.588Z,96460.00
2019-01-17T12:53:52.784Z,96456.00
2019-01-17T12:58:07.738Z,96451.00
2019-01-17T13:02:22.153Z,96454.00
2019-01-17T13:06:36.373Z,96452.00
2019-01-17T13:10:50.854Z,96459.00
2019-01-17T13:15:05.466Z,96462.00
2019-01-17T13:19:20.438Z,96451.00
2019-01-17T13:23:36.837Z,96439.00
2019-01-17T13:27:51.428Z,96433.00
2019-01-17T13:32:05.641Z,96436.00
2019-01-17T13:36:20.279Z,96428.00
2019-01-17T13:40:35.089Z,96421.00
2019-01-17T13:44:49.819Z,96421.00
2019-01-17T13:49:04.102Z,96409.00
2019-01-17T13:53:18.484Z,96420.00
2019-01-17T13:57:32.749Z,96425.00
2019-01-17T14:01:47.347Z,96419.00
2019-01-17T14:06:01.778Z,96415.00
2019-01-17T14:10:16.258Z,96393.00
2019-01-17T14:14:30.780Z,96405.00
2019-01-17T14:18:44.738Z,96461.00
2019-01-17T14:22:59.326Z,96495.00
2019-01-17T14:27:00.388Z,96531.00
2019-01-17T14:31:21.223Z,96534.00
2019-01-17T14:35:42.128Z,96536.00
2019-01-17T14:39:43.018Z,96535.00
2019-01-17T14:43:44.017Z,96548.00
2019-01-17T14:48:04.772Z,96554.00
2019-01-17T14:52:18.698Z,96550.00
2019-01-17T14:56:19.611Z,96557.00
2019-01-17T15:00:40.449Z,96565.00
2019-01-17T15:05:24.013Z,96562.00
2019-01-17T15:09:44.948Z,96574.00
2019-01-17T15:14:05.778Z,96584.00
2019-01-17T15:18:26.513Z,96590.00
2019-01-17T15:22:48.359Z,96595.00
2019-01-17T15:26:49.890Z,96606.00
2019-01-17T15:30:51.203Z,96599.00
2019-01-17T15:35:04.510Z,96598.00
2019-01-17T15:38:55.859Z,96600.00
2019-01-17T15:43:17.144Z,96609.00
2019-01-17T15:47:37.966Z,96616.00
2019-01-17T15:56:27.802Z,96631.00
2019-01-17T16:01:10.605Z,96648.00
2019-01-17T16:05:33.018Z,96656.00
2019-01-17T16:09:54.341Z,96661.00
2019-01-17T16:13:55.815Z,96677.00
2019-01-17T16:18:17.959Z,96687.00
2019-01-17T16:22:38.921Z,96695.00
2019-01-17T16:26:59.669Z,96701.00
2019-01-17T16:31:20.533Z,96707.00
2019-01-17T16:35:41.281Z,96717.00
2019-01-17T16:39:55.876Z,96732.00
2019-01-17T16:44:10.323Z,96743.00
2019-01-17T16:48:25.057Z,96764.00
2019-01-17T16:52:26.487Z,96771.00
2019-01-17T16:56:47.213Z,96781.00
2019-01-17T17:01:07.950Z,96805.00
2019-01-17T17:05:28.732Z,96816.00
2019-01-17T17:09:49.468Z,96827.00
2019-01-17T17:13:50.745Z,96825.00
2019-01-17T17:18:11.500Z,96824.00
2019-01-17T17:22:32.286Z,96828.00
2019-01-17T17:26:53.406Z,96845.00
2019-01-17T17:31:14.153Z,96866.00
2019-01-17T17:35:15.261Z,96869.00
2019-01-17T17:39:29.792Z,96876.00
2019-01-17T17:43:46.188Z,96877.00
2019-01-17T17:48:00.234Z,96871.00
2019-01-17T17:52:14.857Z,96896.00
2019-01-17T17:56:29.441Z,96906.00
2019-01-17T18:00:44.140Z,96887.00
2019-01-17T18:04:59.827Z,96905.00
2019-01-17T18:09:14.382Z,96898.00
2019-01-17T18:13:28.881Z,96912.00
2019-01-17T18:17:43.589Z,96925.00
2019-01-17T18:21:57.865Z,96924.00
2019-01-17T18:26:12.361Z,96925.00
2019-01-17T18:30:26.821Z,96930.00
2019-01-17T18:34:41.329Z,96947.00
2019-01-17T18:38:55.977Z,96944.00
2019-01-17T18:43:10.433Z,96972.00
2019-01-17T18:47:25.186Z,96973.00
2019-01-17T18:51:39.186Z,96970.00
2019-01-17T18:55:53.816Z,96966.00
2019-01-17T19:00:11.195Z,96990.00
2019-01-17T19:09:02.895Z,96992.00
2019-01-17T19:13:45.480Z,97001.00
2019-01-17T19:18:06.239Z,96990.00
2019-01-17T19:22:27.065Z,96986.00
2019-01-17T19:26:47.905Z,96996.00
2019-01-17T19:31:08.770Z,96999.00
2019-01-17T19:35:29.634Z,96997.00
2019-01-17T19:39:50.528Z,96998.00
2019-01-17T19:44:11.424Z,97012.00
2019-01-17T19:48:32.149Z,96996.00
2019-01-17T19:52:53.029Z,97008.00
2019-01-17T19:57:13.864Z,97007.00
2019-01-17T20:01:34.699Z,97006.00
2019-01-17T20:05:55.570Z,97010.00
2019-01-17T20:10:36.184Z,97018.00
2019-01-17T20:14:57.023Z,97015.00
2019-01-17T20:19:18.149Z,97029.00
2019-01-17T20:23:33.015Z,97027.00
2019-01-17T20:27:47.578Z,97034.00
2019-01-17T20:31:48.467Z,97034.00
2019-01-17T20:35:49.466Z,97041.00
2019-01-17T20:39:50.569Z,97044.00
2019-01-17T20:44:12.207Z,97042.00
2019-01-17T20:48:33.071Z,97052.00
2019-01-17T20:52:47.850Z,97060.00
2019-01-17T20:57:01.864Z,97062.00
2019-01-17T21:01:16.426Z,97075.00
2019-01-17T21:05:31.015Z,97087.00
2019-01-17T21:09:45.708Z,97098.00
2019-01-17T21:14:00.289Z,97094.00
2019-01-17T21:18:14.929Z,97107.00
2019-01-17T21:22:28.796Z,97103.00
2019-01-17T21:26:45.095Z,97106.00
2019-01-17T21:31:00.789Z,97099.00
2019-01-17T21:35:18.867Z,97111.00
2019-01-17T21:39:33.540Z,97129.00
2019-01-17T21:43:48.093Z,97132.00
2019-01-17T21:48:02.435Z,97142.00
2019-01-17T21:52:18.290Z,97139.00
2019-01-17T21:56:37.143Z,97155.00
2019-01-17T22:00:53.360Z,97178.00
2019-01-17T22:05:09.940Z,97173.00
2019-01-17T22:09:24.348Z,97178.00
2019-01-17T22:13:47.007Z,97191.00
2019-01-17T22:18:07.884Z,97195.00
2019-01-17T22:22:28.749Z,97209.00
2019-01-17T22:26:49.500Z,97222.00
2019-01-17T22:31:10.360Z,97237.00
2019-01-17T22:35:11.417Z,97226.00
2019-01-17T22:39:32.140Z,97245.00
2019-01-17T22:43:52.994Z,97260.00
2019-01-17T22:47:54.084Z,97267.00
2019-01-17T22:52:14.827Z,97273.00
2019-01-17T22:56:29.173Z,97274.00
2019-01-17T23:05:12.516Z,97301.00
2019-01-17T23:09:29.335Z,97302.00
2019-01-17T23:13:30.228Z,97299.00
2019-01-17T23:17:31.097Z,97299.00
2019-01-17T23:21:45.881Z,97312.00
2019-01-17T23:26:00.246Z,97315.00
2019-01-17T23:30:15.665Z,97324.00
2019-01-17T23:34:32.873Z,97318.00
2019-01-17T23:38:46.975Z,97326.00
2019-01-17T23:43:01.529Z,97330.00
2019-01-17T23:47:15.957Z,97337.00
2019-01-17T23:51:30.599Z,97347.00
2019-01-17T23:55:44.920Z,97353.00
2019-01-17T23:59:59.392Z,97347.00
